sensor_id;sensor_type;location;lat;lon;timestamp;P1;durP1;ratioP1;P2;durP2;ratioP2
3943;SDS011;1986;52.546;13.428;2024-02-23T00:01:24;15.40;;;15.10;;
3943;SDS011;1986;52.546;13.428;2024-02-23T00:03:51;15.90;;;15.60;;
3943;SDS011;1986;52.546;13.428;2024-02-23T00:06:20;15.10;;;14.80;;
3943;SDS011;1986;52.546;13.428;2024-02-23T00:08:53;14.70;;;14.50;;
3943;SDS011;1986;52.546;13.428;2024-02-23T00:11:19;13.90;;;13.70;;
3943;SDS011;1986;52.546;13.428;2024-02-23T00:13:47;14.00;;;13.80;;
3943;SDS011;1986;52.546;13.428;2024-02-23T00:16:14;12.60;;;12.50;;
3943;SDS011;1986;52.546;13.428;2024-02-23T00:18:42;12.73;;;12.63;;
3943;SDS011;1986;52.546;13.428;2024-02-23T00:21:09;12.00;;;11.90;;
3943;SDS011;1986;52.546;13.428;2024-02-23T00:23:36;11.00;;;10.90;;
3943;SDS011;1986;52.546;13.428;2024-02-23T00:26:03;10.90;;;10.80;;
3943;SDS011;1986;52.546;13.428;2024-02-23T00:28:30;10.80;;;10.70;;
3943;SDS011;1986;52.546;13.428;2024-02-23T00:30:57;10.57;;;10.47;;
3943;SDS011;1986;52.546;13.428;2024-02-23T00:33:24;10.27;;;10.17;;
3943;SDS011;1986;52.546;13.428;2024-02-23T00:35:52;10.50;;;10.40;;
3943;SDS011;1986;52.546;13.428;2024-02-23T00:38:19;10.60;;;10.50;;
3943;SDS011;1986;52.546;13.428;2024-02-23T00:40:46;9.90;;;9.80;;
3943;SDS011;1986;52.546;13.428;2024-02-23T00:43:13;10.37;;;10.27;;
3943;SDS011;1986;52.546;13.428;2024-02-23T00:45:40;9.87;;;9.77;;
3943;SDS011;1986;52.546;13.428;2024-02-23T00:48:08;9.80;;;9.70;;
3943;SDS011;1986;52.546;13.428;2024-02-23T00:50:35;8.87;;;8.77;;
3943;SDS011;1986;52.546;13.428;2024-02-23T00:53:03;8.23;;;8.23;;
3943;SDS011;1986;52.546;13.428;2024-02-23T00:55:33;7.90;;;7.90;;
3943;SDS011;1986;52.546;13.428;2024-02-23T00:58:00;7.40;;;7.40;;
3943;SDS011;1986;52.546;13.428;2024-02-23T01:00:28;7.50;;;7.50;;
3943;SDS011;1986;52.546;13.428;2024-02-23T01:02:55;7.00;;;7.00;;
3943;SDS011;1986;52.546;13.428;2024-02-23T01:05:25;4.50;;;4.50;;
3943;SDS011;1986;52.546;13.428;2024-02-23T01:07:53;4.80;;;4.80;;
3943;SDS011;1986;52.546;13.428;2024-02-23T01:10:21;4.70;;;4.70;;
3943;SDS011;1986;52.546;13.428;2024-02-23T01:12:48;3.40;;;3.40;;
3943;SDS011;1986;52.546;13.428;2024-02-23T01:15:15;2.53;;;2.53;;
3943;SDS011;1986;52.546;13.428;2024-02-23T01:17:44;2.00;;;2.00;;
3943;SDS011;1986;52.546;13.428;2024-02-23T01:20:11;1.90;;;1.90;;
3943;SDS011;1986;52.546;13.428;2024-02-23T01:22:38;2.20;;;2.20;;
3943;SDS011;1986;52.546;13.428;2024-02-23T01:25:05;1.90;;;1.90;;
3943;SDS011;1986;52.546;13.428;2024-02-23T01:27:35;1.93;;;1.93;;
3943;SDS011;1986;52.546;13.428;2024-02-23T01:30:02;1.77;;;1.77;;
3943;SDS011;1986;52.546;13.428;2024-02-23T01:32:30;2.00;;;2.00;;
3943;SDS011;1986;52.546;13.428;2024-02-23T01:34:57;2.60;;;2.60;;
3943;SDS011;1986;52.546;13.428;2024-02-23T01:37:24;3.10;;;3.10;;
3943;SDS011;1986;52.546;13.428;2024-02-23T01:39:51;3.80;;;3.80;;
3943;SDS011;1986;52.546;13.428;2024-02-23T01:42:19;4.47;;;4.47;;
3943;SDS011;1986;52.546;13.428;2024-02-23T01:44:50;4.90;;;4.90;;
3943;SDS011;1986;52.546;13.428;2024-02-23T01:47:17;5.73;;;5.73;;
3943;SDS011;1986;52.546;13.428;2024-02-23T01:49:47;6.40;;;6.40;;
3943;SDS011;1986;52.546;13.428;2024-02-23T01:52:16;7.20;;;7.20;;
3943;SDS011;1986;52.546;13.428;2024-02-23T01:54:46;7.70;;;7.70;;
3943;SDS011;1986;52.546;13.428;2024-02-23T01:57:15;8.20;;;8.10;;
3943;SDS011;1986;52.546;13.428;2024-02-23T01:59:42;9.40;;;9.30;;
3943;SDS011;1986;52.546;13.428;2024-02-23T02:02:15;10.50;;;10.40;;
3943;SDS011;1986;52.546;13.428;2024-02-23T02:04:42;10.87;;;10.77;;
3943;SDS011;1986;52.546;13.428;2024-02-23T02:07:09;12.60;;;12.40;;
3943;SDS011;1986;52.546;13.428;2024-02-23T02:09:36;13.30;;;13.00;;
3943;SDS011;1986;52.546;13.428;2024-02-23T02:12:03;13.70;;;13.40;;
3943;SDS011;1986;52.546;13.428;2024-02-23T02:14:30;14.30;;;13.90;;
3943;SDS011;1986;52.546;13.428;2024-02-23T02:16:58;15.10;;;14.70;;
3943;SDS011;1986;52.546;13.428;2024-02-23T02:19:28;15.20;;;14.80;;
3943;SDS011;1986;52.546;13.428;2024-02-23T02:21:55;16.00;;;15.50;;
3943;SDS011;1986;52.546;13.428;2024-02-23T02:24:26;16.00;;;15.50;;
3943;SDS011;1986;52.546;13.428;2024-02-23T02:26:53;15.93;;;15.43;;
3943;SDS011;1986;52.546;13.428;2024-02-23T02:29:20;16.20;;;15.70;;
3943;SDS011;1986;52.546;13.428;2024-02-23T02:31:48;16.40;;;15.90;;
3943;SDS011;1986;52.546;13.428;2024-02-23T02:34:15;16.40;;;15.90;;
3943;SDS011;1986;52.546;13.428;2024-02-23T02:36:43;16.50;;;16.00;;
3943;SDS011;1986;52.546;13.428;2024-02-23T02:39:11;16.97;;;16.37;;
3943;SDS011;1986;52.546;13.428;2024-02-23T02:41:39;17.30;;;16.70;;
3943;SDS011;1986;52.546;13.428;2024-02-23T02:44:06;17.90;;;17.30;;
3943;SDS011;1986;52.546;13.428;2024-02-23T02:46:34;18.00;;;17.30;;
3943;SDS011;1986;52.546;13.428;2024-02-23T02:49:02;18.30;;;17.60;;
3943;SDS011;1986;52.546;13.428;2024-02-23T02:51:29;18.60;;;17.90;;
3943;SDS011;1986;52.546;13.428;2024-02-23T02:54:00;19.00;;;18.30;;
3943;SDS011;1986;52.546;13.428;2024-02-23T02:56:27;18.90;;;18.20;;
3943;SDS011;1986;52.546;13.428;2024-02-23T02:58:55;18.80;;;18.10;;
3943;SDS011;1986;52.546;13.428;2024-02-23T03:01:23;19.33;;;18.53;;
3943;SDS011;1986;52.546;13.428;2024-02-23T03:03:51;19.20;;;18.40;;
3943;SDS011;1986;52.546;13.428;2024-02-23T03:06:19;19.20;;;18.40;;
3943;SDS011;1986;52.546;13.428;2024-02-23T03:08:46;19.03;;;18.33;;
3943;SDS011;1986;52.546;13.428;2024-02-23T03:11:14;19.20;;;18.50;;
3943;SDS011;1986;52.546;13.428;2024-02-23T03:13:43;19.10;;;18.40;;
3943;SDS011;1986;52.546;13.428;2024-02-23T03:16:14;18.90;;;18.20;;
3943;SDS011;1986;52.546;13.428;2024-02-23T03:18:41;19.13;;;18.33;;
3943;SDS011;1986;52.546;13.428;2024-02-23T03:21:08;19.40;;;18.60;;
3943;SDS011;1986;52.546;13.428;2024-02-23T03:23:35;19.23;;;18.43;;
3943;SDS011;1986;52.546;13.428;2024-02-23T03:26:03;19.10;;;18.30;;
3943;SDS011;1986;52.546;13.428;2024-02-23T03:28:34;18.90;;;18.20;;
3943;SDS011;1986;52.546;13.428;2024-02-23T03:31:01;18.90;;;18.20;;
3943;SDS011;1986;52.546;13.428;2024-02-23T03:33:28;19.00;;;18.20;;
3943;SDS011;1986;52.546;13.428;2024-02-23T03:35:57;19.13;;;18.33;;
3943;SDS011;1986;52.546;13.428;2024-02-23T03:38:24;19.30;;;18.50;;
3943;SDS011;1986;52.546;13.428;2024-02-23T03:40:52;19.77;;;18.97;;
3943;SDS011;1986;52.546;13.428;2024-02-23T03:43:19;19.30;;;18.50;;
3943;SDS011;1986;52.546;13.428;2024-02-23T03:45:47;19.20;;;18.40;;
3943;SDS011;1986;52.546;13.428;2024-02-23T03:48:16;19.57;;;18.77;;
3943;SDS011;1986;52.546;13.428;2024-02-23T03:50:47;19.37;;;18.57;;
3943;SDS011;1986;52.546;13.428;2024-02-23T03:53:17;19.10;;;18.30;;
3943;SDS011;1986;52.546;13.428;2024-02-23T03:55:44;19.30;;;18.50;;
3943;SDS011;1986;52.546;13.428;2024-02-23T03:58:11;19.33;;;18.53;;
3943;SDS011;1986;52.546;13.428;2024-02-23T04:00:38;20.17;;;19.27;;
3943;SDS011;1986;52.546;13.428;2024-02-23T04:03:06;20.13;;;19.23;;
3943;SDS011;1986;52.546;13.428;2024-02-23T04:05:35;19.87;;;18.97;;
3943;SDS011;1986;52.546;13.428;2024-02-23T04:08:02;19.80;;;18.90;;
3943;SDS011;1986;52.546;13.428;2024-02-23T04:10:29;19.57;;;18.77;;
3943;SDS011;1986;52.546;13.428;2024-02-23T04:12:59;20.00;;;19.10;;
3943;SDS011;1986;52.546;13.428;2024-02-23T04:15:26;19.90;;;19.10;;
3943;SDS011;1986;52.546;13.428;2024-02-23T04:17:54;19.60;;;18.80;;
3943;SDS011;1986;52.546;13.428;2024-02-23T04:20:22;19.60;;;18.80;;
3943;SDS011;1986;52.546;13.428;2024-02-23T04:22:49;19.80;;;19.00;;
3943;SDS011;1986;52.546;13.428;2024-02-23T04:25:20;20.10;;;19.20;;
3943;SDS011;1986;52.546;13.428;2024-02-23T04:27:47;20.03;;;19.20;;
3943;SDS011;1986;52.546;13.428;2024-02-23T04:30:14;20.20;;;19.30;;
3943;SDS011;1986;52.546;13.428;2024-02-23T04:32:41;20.10;;;19.20;;
3943;SDS011;1986;52.546;13.428;2024-02-23T04:35:10;19.97;;;19.07;;
3943;SDS011;1986;52.546;13.428;2024-02-23T04:37:39;20.10;;;19.20;;
3943;SDS011;1986;52.546;13.428;2024-02-23T04:40:06;20.10;;;19.20;;
3943;SDS011;1986;52.546;13.428;2024-02-23T04:42:35;20.50;;;19.60;;
3943;SDS011;1986;52.546;13.428;2024-02-23T04:45:02;20.00;;;19.10;;
3943;SDS011;1986;52.546;13.428;2024-02-23T04:47:32;20.30;;;19.40;;
3943;SDS011;1986;52.546;13.428;2024-02-23T04:49:59;20.00;;;19.10;;
3943;SDS011;1986;52.546;13.428;2024-02-23T04:52:34;20.10;;;19.20;;
3943;SDS011;1986;52.546;13.428;2024-02-23T04:55:02;19.83;;;19.03;;
3943;SDS011;1986;52.546;13.428;2024-02-23T04:57:30;20.20;;;19.30;;
3943;SDS011;1986;52.546;13.428;2024-02-23T04:59:57;20.80;;;19.90;;
3943;SDS011;1986;52.546;13.428;2024-02-23T05:02:24;21.00;;;20.10;;
3943;SDS011;1986;52.546;13.428;2024-02-23T05:04:54;20.70;;;19.80;;
3943;SDS011;1986;52.546;13.428;2024-02-23T05:07:29;20.50;;;19.60;;
3943;SDS011;1986;52.546;13.428;2024-02-23T05:09:59;20.63;;;19.73;;
3943;SDS011;1986;52.546;13.428;2024-02-23T05:12:28;20.10;;;19.20;;
3943;SDS011;1986;52.546;13.428;2024-02-23T05:14:55;20.37;;;19.47;;
3943;SDS011;1986;52.546;13.428;2024-02-23T05:17:30;20.67;;;19.77;;
3943;SDS011;1986;52.546;13.428;2024-02-23T05:19:58;20.97;;;19.97;;
3943;SDS011;1986;52.546;13.428;2024-02-23T05:22:25;21.03;;;20.10;;
3943;SDS011;1986;52.546;13.428;2024-02-23T05:24:52;21.00;;;20.10;;
3943;SDS011;1986;52.546;13.428;2024-02-23T05:27:19;20.63;;;19.73;;
3943;SDS011;1986;52.546;13.428;2024-02-23T05:29:48;20.80;;;19.80;;
3943;SDS011;1986;52.546;13.428;2024-02-23T05:32:15;20.47;;;19.47;;
3943;SDS011;1986;52.546;13.428;2024-02-23T05:34:44;20.57;;;19.67;;
3943;SDS011;1986;52.546;13.428;2024-02-23T05:37:11;20.43;;;19.53;;
3943;SDS011;1986;52.546;13.428;2024-02-23T05:39:39;20.40;;;19.50;;
3943;SDS011;1986;52.546;13.428;2024-02-23T05:42:08;20.70;;;19.80;;
3943;SDS011;1986;52.546;13.428;2024-02-23T05:44:39;20.53;;;19.63;;
3943;SDS011;1986;52.546;13.428;2024-02-23T05:47:12;20.50;;;19.60;;
3943;SDS011;1986;52.546;13.428;2024-02-23T05:49:42;20.50;;;19.60;;
3943;SDS011;1986;52.546;13.428;2024-02-23T05:52:13;20.40;;;19.50;;
3943;SDS011;1986;52.546;13.428;2024-02-23T05:54:40;20.60;;;19.60;;
3943;SDS011;1986;52.546;13.428;2024-02-23T05:57:07;20.70;;;19.70;;
3943;SDS011;1986;52.546;13.428;2024-02-23T05:59:34;20.80;;;19.80;;
3943;SDS011;1986;52.546;13.428;2024-02-23T06:02:01;20.70;;;19.70;;
3943;SDS011;1986;52.546;13.428;2024-02-23T06:04:30;20.47;;;19.50;;
3943;SDS011;1986;52.546;13.428;2024-02-23T06:07:00;20.50;;;19.60;;
3943;SDS011;1986;52.546;13.428;2024-02-23T06:09:28;20.63;;;19.63;;
3943;SDS011;1986;52.546;13.428;2024-02-23T06:11:55;19.50;;;18.50;;
3943;SDS011;1986;52.546;13.428;2024-02-23T06:14:22;19.50;;;18.50;;
3943;SDS011;1986;52.546;13.428;2024-02-23T06:16:53;18.90;;;17.97;;
3943;SDS011;1986;52.546;13.428;2024-02-23T06:19:22;19.17;;;18.17;;
3943;SDS011;1986;52.546;13.428;2024-02-23T06:21:52;20.30;;;19.30;;
3943;SDS011;1986;52.546;13.428;2024-02-23T06:24:19;19.43;;;18.43;;
3943;SDS011;1986;52.546;13.428;2024-02-23T06:26:47;20.80;;;19.80;;
3943;SDS011;1986;52.546;13.428;2024-02-23T06:29:18;20.40;;;19.50;;
3943;SDS011;1986;52.546;13.428;2024-02-23T06:31:45;19.80;;;18.80;;
3943;SDS011;1986;52.546;13.428;2024-02-23T06:34:14;19.93;;;19.00;;
3943;SDS011;1986;52.546;13.428;2024-02-23T06:36:41;20.07;;;19.10;;
3943;SDS011;1986;52.546;13.428;2024-02-23T06:39:13;20.10;;;19.10;;
3943;SDS011;1986;52.546;13.428;2024-02-23T06:41:44;19.50;;;18.60;;
3943;SDS011;1986;52.546;13.428;2024-02-23T06:44:14;19.60;;;18.60;;
3943;SDS011;1986;52.546;13.428;2024-02-23T06:46:41;19.53;;;18.63;;
3943;SDS011;1986;52.546;13.428;2024-02-23T06:49:09;19.80;;;18.90;;
3943;SDS011;1986;52.546;13.428;2024-02-23T06:51:41;19.30;;;18.40;;
3943;SDS011;1986;52.546;13.428;2024-02-23T06:54:10;19.40;;;18.50;;
3943;SDS011;1986;52.546;13.428;2024-02-23T06:56:39;20.00;;;19.00;;
3943;SDS011;1986;52.546;13.428;2024-02-23T06:59:06;19.60;;;18.70;;
3943;SDS011;1986;52.546;13.428;2024-02-23T07:01:36;19.63;;;18.73;;
3943;SDS011;1986;52.546;13.428;2024-02-23T07:04:15;19.60;;;18.70;;
3943;SDS011;1986;52.546;13.428;2024-02-23T07:06:44;19.30;;;18.40;;
3943;SDS011;1986;52.546;13.428;2024-02-23T07:09:13;19.10;;;18.20;;
3943;SDS011;1986;52.546;13.428;2024-02-23T07:11:48;19.50;;;18.60;;
3943;SDS011;1986;52.546;13.428;2024-02-23T07:14:17;19.30;;;18.40;;
3943;SDS011;1986;52.546;13.428;2024-02-23T07:16:48;19.47;;;18.57;;
3943;SDS011;1986;52.546;13.428;2024-02-23T07:19:17;19.30;;;18.40;;
3943;SDS011;1986;52.546;13.428;2024-02-23T07:21:47;19.20;;;18.30;;
3943;SDS011;1986;52.546;13.428;2024-02-23T07:24:15;19.20;;;18.40;;
3943;SDS011;1986;52.546;13.428;2024-02-23T07:26:45;19.10;;;18.30;;
3943;SDS011;1986;52.546;13.428;2024-02-23T07:29:15;18.80;;;18.00;;
3943;SDS011;1986;52.546;13.428;2024-02-23T07:31:43;18.90;;;18.10;;
3943;SDS011;1986;52.546;13.428;2024-02-23T07:34:10;19.43;;;18.53;;
3943;SDS011;1986;52.546;13.428;2024-02-23T07:36:42;19.00;;;18.20;;
3943;SDS011;1986;52.546;13.428;2024-02-23T07:39:11;19.10;;;18.30;;
3943;SDS011;1986;52.546;13.428;2024-02-23T07:41:40;18.80;;;18.00;;
3943;SDS011;1986;52.546;13.428;2024-02-23T07:44:10;19.60;;;18.70;;
3943;SDS011;1986;52.546;13.428;2024-02-23T07:46:39;19.77;;;18.90;;
3943;SDS011;1986;52.546;13.428;2024-02-23T07:49:08;19.40;;;18.50;;
3943;SDS011;1986;52.546;13.428;2024-02-23T07:51:36;19.80;;;19.00;;
3943;SDS011;1986;52.546;13.428;2024-02-23T07:54:10;19.60;;;18.80;;
3943;SDS011;1986;52.546;13.428;2024-02-23T07:56:42;19.67;;;18.77;;
3943;SDS011;1986;52.546;13.428;2024-02-23T07:59:14;19.30;;;18.43;;
3943;SDS011;1986;52.546;13.428;2024-02-23T08:01:49;20.00;;;19.10;;
3943;SDS011;1986;52.546;13.428;2024-02-23T08:04:18;20.00;;;19.10;;
3943;SDS011;1986;52.546;13.428;2024-02-23T08:07:01;19.50;;;18.70;;
3943;SDS011;1986;52.546;13.428;2024-02-23T08:09:28;19.30;;;18.50;;
3943;SDS011;1986;52.546;13.428;2024-02-23T08:11:56;19.10;;;18.30;;
3943;SDS011;1986;52.546;13.428;2024-02-23T08:14:24;19.40;;;18.50;;
3943;SDS011;1986;52.546;13.428;2024-02-23T08:16:52;18.90;;;18.10;;
3943;SDS011;1986;52.546;13.428;2024-02-23T08:19:20;19.30;;;18.40;;
3943;SDS011;1986;52.546;13.428;2024-02-23T08:21:47;19.50;;;18.60;;
3943;SDS011;1986;52.546;13.428;2024-02-23T08:24:14;20.10;;;19.20;;
3943;SDS011;1986;52.546;13.428;2024-02-23T08:26:48;19.37;;;18.47;;
3943;SDS011;1986;52.546;13.428;2024-02-23T08:29:15;19.53;;;18.63;;
3943;SDS011;1986;52.546;13.428;2024-02-23T08:31:44;19.77;;;18.87;;
3943;SDS011;1986;52.546;13.428;2024-02-23T08:34:15;19.60;;;18.70;;
3943;SDS011;1986;52.546;13.428;2024-02-23T08:36:42;19.20;;;18.40;;
3943;SDS011;1986;52.546;13.428;2024-02-23T08:39:11;19.67;;;18.87;;
3943;SDS011;1986;52.546;13.428;2024-02-23T08:41:38;20.50;;;19.60;;
3943;SDS011;1986;52.546;13.428;2024-02-23T08:44:05;20.07;;;19.17;;
3943;SDS011;1986;52.546;13.428;2024-02-23T08:46:33;20.20;;;19.30;;
3943;SDS011;1986;52.546;13.428;2024-02-23T08:49:07;20.50;;;19.60;;
3943;SDS011;1986;52.546;13.428;2024-02-23T08:51:37;20.57;;;19.67;;
3943;SDS011;1986;52.546;13.428;2024-02-23T08:54:06;20.17;;;19.27;;
3943;SDS011;1986;52.546;13.428;2024-02-23T08:56:37;20.10;;;19.20;;
3943;SDS011;1986;52.546;13.428;2024-02-23T08:59:08;20.10;;;19.20;;
3943;SDS011;1986;52.546;13.428;2024-02-23T09:01:36;20.83;;;19.90;;
3943;SDS011;1986;52.546;13.428;2024-02-23T09:07:11;21.33;;;20.33;;
3943;SDS011;1986;52.546;13.428;2024-02-23T09:09:38;21.50;;;20.50;;
3943;SDS011;1986;52.546;13.428;2024-02-23T09:12:06;22.20;;;21.20;;
3943;SDS011;1986;52.546;13.428;2024-02-23T09:14:37;22.17;;;21.07;;
3943;SDS011;1986;52.546;13.428;2024-02-23T09:17:06;22.70;;;21.70;;
3943;SDS011;1986;52.546;13.428;2024-02-23T09:19:36;23.00;;;22.00;;
3943;SDS011;1986;52.546;13.428;2024-02-23T09:22:07;23.10;;;22.10;;
3943;SDS011;1986;52.546;13.428;2024-02-23T09:24:34;22.60;;;21.50;;
3943;SDS011;1986;52.546;13.428;2024-02-23T09:27:09;21.80;;;20.60;;
3943;SDS011;1986;52.546;13.428;2024-02-23T09:29:36;22.30;;;21.20;;
3943;SDS011;1986;52.546;13.428;2024-02-23T09:32:05;22.40;;;21.30;;
3943;SDS011;1986;52.546;13.428;2024-02-23T09:34:34;22.83;;;21.73;;
3943;SDS011;1986;52.546;13.428;2024-02-23T09:37:19;22.43;;;21.33;;
3943;SDS011;1986;52.546;13.428;2024-02-23T09:39:56;22.70;;;21.60;;
3943;SDS011;1986;52.546;13.428;2024-02-23T09:42:28;23.43;;;22.30;;
3943;SDS011;1986;52.546;13.428;2024-02-23T09:45:04;22.40;;;21.30;;
3943;SDS011;1986;52.546;13.428;2024-02-23T09:47:36;22.30;;;21.20;;
3943;SDS011;1986;52.546;13.428;2024-02-23T09:50:10;21.13;;;20.03;;
3943;SDS011;1986;52.546;13.428;2024-02-23T09:55:27;21.60;;;20.60;;
3943;SDS011;1986;52.546;13.428;2024-02-23T09:57:57;21.70;;;20.70;;
3943;SDS011;1986;52.546;13.428;2024-02-23T10:00:39;21.70;;;20.70;;
3943;SDS011;1986;52.546;13.428;2024-02-23T10:03:10;22.10;;;21.10;;
3943;SDS011;1986;52.546;13.428;2024-02-23T10:05:39;22.67;;;21.63;;
3943;SDS011;1986;52.546;13.428;2024-02-23T10:08:07;22.70;;;21.70;;
3943;SDS011;1986;52.546;13.428;2024-02-23T10:10:35;22.90;;;21.80;;
3943;SDS011;1986;52.546;13.428;2024-02-23T10:13:08;22.03;;;21.03;;
3943;SDS011;1986;52.546;13.428;2024-02-23T10:15:49;22.13;;;21.13;;
3943;SDS011;1986;52.546;13.428;2024-02-23T10:18:18;23.10;;;22.10;;
3943;SDS011;1986;52.546;13.428;2024-02-23T10:20:46;22.00;;;21.00;;
3943;SDS011;1986;52.546;13.428;2024-02-23T10:23:17;22.30;;;21.30;;
3943;SDS011;1986;52.546;13.428;2024-02-23T10:25:45;21.30;;;20.30;;
3943;SDS011;1986;52.546;13.428;2024-02-23T10:28:14;20.90;;;20.00;;
3943;SDS011;1986;52.546;13.428;2024-02-23T10:30:47;21.20;;;20.20;;
3943;SDS011;1986;52.546;13.428;2024-02-23T10:33:22;21.30;;;20.30;;
3943;SDS011;1986;52.546;13.428;2024-02-23T10:36:04;20.80;;;19.80;;
3943;SDS011;1986;52.546;13.428;2024-02-23T10:38:38;21.20;;;20.20;;
3943;SDS011;1986;52.546;13.428;2024-02-23T10:41:07;21.20;;;20.20;;
3943;SDS011;1986;52.546;13.428;2024-02-23T10:43:41;22.00;;;20.90;;
3943;SDS011;1986;52.546;13.428;2024-02-23T10:46:12;23.03;;;21.83;;
3943;SDS011;1986;52.546;13.428;2024-02-23T10:48:56;22.20;;;21.10;;
3943;SDS011;1986;52.546;13.428;2024-02-23T10:51:25;22.70;;;21.50;;
3943;SDS011;1986;52.546;13.428;2024-02-23T10:53:54;22.53;;;21.33;;
3943;SDS011;1986;52.546;13.428;2024-02-23T10:56:23;22.40;;;21.20;;
3943;SDS011;1986;52.546;13.428;2024-02-23T10:58:51;22.73;;;21.53;;
3943;SDS011;1986;52.546;13.428;2024-02-23T11:01:25;23.00;;;21.80;;
3943;SDS011;1986;52.546;13.428;2024-02-23T11:03:54;22.63;;;21.43;;
3943;SDS011;1986;52.546;13.428;2024-02-23T11:06:27;22.27;;;21.17;;
3943;SDS011;1986;52.546;13.428;2024-02-23T11:09:06;22.40;;;21.20;;
3943;SDS011;1986;52.546;13.428;2024-02-23T11:11:39;22.63;;;21.43;;
3943;SDS011;1986;52.546;13.428;2024-02-23T11:14:28;22.50;;;21.40;;
3943;SDS011;1986;52.546;13.428;2024-02-23T11:16:58;22.37;;;21.30;;
3943;SDS011;1986;52.546;13.428;2024-02-23T11:19:34;22.30;;;21.20;;
3943;SDS011;1986;52.546;13.428;2024-02-23T11:22:35;22.50;;;21.30;;
3943;SDS011;1986;52.546;13.428;2024-02-23T11:25:12;22.90;;;21.70;;
3943;SDS011;1986;52.546;13.428;2024-02-23T11:27:43;23.03;;;21.83;;
3943;SDS011;1986;52.546;13.428;2024-02-23T11:30:16;23.70;;;22.40;;
3943;SDS011;1986;52.546;13.428;2024-02-23T11:32:44;23.50;;;22.30;;
3943;SDS011;1986;52.546;13.428;2024-02-23T11:35:16;24.00;;;22.70;;
3943;SDS011;1986;52.546;13.428;2024-02-23T11:37:45;23.20;;;22.10;;
3943;SDS011;1986;52.546;13.428;2024-02-23T11:40:23;23.57;;;22.37;;
3943;SDS011;1986;52.546;13.428;2024-02-23T11:42:50;23.13;;;21.93;;
3943;SDS011;1986;52.546;13.428;2024-02-23T11:45:19;23.43;;;22.13;;
3943;SDS011;1986;52.546;13.428;2024-02-23T11:47:48;23.40;;;22.10;;
3943;SDS011;1986;52.546;13.428;2024-02-23T11:50:15;22.70;;;21.40;;
3943;SDS011;1986;52.546;13.428;2024-02-23T11:52:45;22.70;;;21.50;;
3943;SDS011;1986;52.546;13.428;2024-02-23T11:55:22;22.70;;;21.50;;
3943;SDS011;1986;52.546;13.428;2024-02-23T11:57:51;23.40;;;22.10;;
3943;SDS011;1986;52.546;13.428;2024-02-23T12:00:23;23.50;;;22.20;;
3943;SDS011;1986;52.546;13.428;2024-02-23T12:02:56;23.97;;;22.67;;
3943;SDS011;1986;52.546;13.428;2024-02-23T12:05:25;23.77;;;22.57;;
3943;SDS011;1986;52.546;13.428;2024-02-23T12:07:53;25.13;;;23.83;;
3943;SDS011;1986;52.546;13.428;2024-02-23T12:10:31;24.20;;;23.00;;
3943;SDS011;1986;52.546;13.428;2024-02-23T12:13:09;23.80;;;22.53;;
3943;SDS011;1986;52.546;13.428;2024-02-23T12:15:36;23.87;;;22.63;;
3943;SDS011;1986;52.546;13.428;2024-02-23T12:18:10;23.90;;;22.60;;
3943;SDS011;1986;52.546;13.428;2024-02-23T12:20:40;24.07;;;22.77;;
3943;SDS011;1986;52.546;13.428;2024-02-23T12:23:07;24.10;;;22.80;;
3943;SDS011;1986;52.546;13.428;2024-02-23T12:25:37;24.60;;;23.30;;
3943;SDS011;1986;52.546;13.428;2024-02-23T12:28:05;23.10;;;21.80;;
3943;SDS011;1986;52.546;13.428;2024-02-23T12:30:33;23.27;;;21.97;;
3943;SDS011;1986;52.546;13.428;2024-02-23T12:33:04;22.60;;;21.30;;
3943;SDS011;1986;52.546;13.428;2024-02-23T12:35:35;23.00;;;21.80;;
3943;SDS011;1986;52.546;13.428;2024-02-23T12:38:02;23.30;;;22.00;;
3943;SDS011;1986;52.546;13.428;2024-02-23T12:40:45;23.80;;;22.60;;
3943;SDS011;1986;52.546;13.428;2024-02-23T12:43:12;23.80;;;22.60;;
3943;SDS011;1986;52.546;13.428;2024-02-23T12:45:43;24.17;;;22.87;;
3943;SDS011;1986;52.546;13.428;2024-02-23T12:48:14;24.20;;;22.90;;
3943;SDS011;1986;52.546;13.428;2024-02-23T12:50:41;24.60;;;23.30;;
3943;SDS011;1986;52.546;13.428;2024-02-23T12:53:30;25.10;;;23.80;;
3943;SDS011;1986;52.546;13.428;2024-02-23T12:56:01;24.30;;;23.10;;
3943;SDS011;1986;52.546;13.428;2024-02-23T12:58:36;23.57;;;22.37;;
3943;SDS011;1986;52.546;13.428;2024-02-23T13:01:04;23.40;;;22.20;;
3943;SDS011;1986;52.546;13.428;2024-02-23T13:03:33;23.00;;;21.90;;
3943;SDS011;1986;52.546;13.428;2024-02-23T13:06:03;23.80;;;22.60;;
3943;SDS011;1986;52.546;13.428;2024-02-23T13:08:32;23.60;;;22.40;;
3943;SDS011;1986;52.546;13.428;2024-02-23T13:11:10;24.50;;;23.30;;
3943;SDS011;1986;52.546;13.428;2024-02-23T13:13:38;24.30;;;23.10;;
3943;SDS011;1986;52.546;13.428;2024-02-23T13:16:06;24.80;;;23.60;;
3943;SDS011;1986;52.546;13.428;2024-02-23T13:18:40;24.57;;;23.37;;
3943;SDS011;1986;52.546;13.428;2024-02-23T13:21:09;24.53;;;23.33;;
3943;SDS011;1986;52.546;13.428;2024-02-23T13:23:50;24.53;;;23.33;;
3943;SDS011;1986;52.546;13.428;2024-02-23T13:26:21;24.47;;;23.27;;
3943;SDS011;1986;52.546;13.428;2024-02-23T13:28:50;23.30;;;22.10;;
3943;SDS011;1986;52.546;13.428;2024-02-23T13:31:19;23.70;;;22.50;;
3943;SDS011;1986;52.546;13.428;2024-02-23T13:33:48;23.20;;;22.00;;
3943;SDS011;1986;52.546;13.428;2024-02-23T13:36:18;23.20;;;22.10;;
3943;SDS011;1986;52.546;13.428;2024-02-23T13:38:45;23.40;;;22.30;;
3943;SDS011;1986;52.546;13.428;2024-02-23T13:41:34;23.97;;;22.77;;
3943;SDS011;1986;52.546;13.428;2024-02-23T13:44:07;23.60;;;22.40;;
3943;SDS011;1986;52.546;13.428;2024-02-23T13:46:49;23.87;;;22.60;;
3943;SDS011;1986;52.546;13.428;2024-02-23T13:49:17;23.40;;;22.20;;
3943;SDS011;1986;52.546;13.428;2024-02-23T13:51:58;23.30;;;22.10;;
3943;SDS011;1986;52.546;13.428;2024-02-23T13:54:29;24.00;;;22.80;;
3943;SDS011;1986;52.546;13.428;2024-02-23T13:56:59;23.50;;;22.30;;
3943;SDS011;1986;52.546;13.428;2024-02-23T13:59:30;23.10;;;22.00;;
3943;SDS011;1986;52.546;13.428;2024-02-23T14:02:11;22.90;;;21.80;;
3943;SDS011;1986;52.546;13.428;2024-02-23T14:04:45;22.70;;;21.60;;
3943;SDS011;1986;52.546;13.428;2024-02-23T14:07:13;22.67;;;21.57;;
3943;SDS011;1986;52.546;13.428;2024-02-23T14:09:50;22.90;;;21.70;;
3943;SDS011;1986;52.546;13.428;2024-02-23T14:15:35;23.00;;;21.80;;
3943;SDS011;1986;52.546;13.428;2024-02-23T14:18:03;23.00;;;21.80;;
3943;SDS011;1986;52.546;13.428;2024-02-23T14:20:32;22.73;;;21.53;;
3943;SDS011;1986;52.546;13.428;2024-02-23T14:23:01;23.30;;;22.10;;
3943;SDS011;1986;52.546;13.428;2024-02-23T14:25:30;23.50;;;22.30;;
3943;SDS011;1986;52.546;13.428;2024-02-23T14:28:00;23.10;;;21.90;;
3943;SDS011;1986;52.546;13.428;2024-02-23T14:30:28;22.90;;;21.80;;
3943;SDS011;1986;52.546;13.428;2024-02-23T14:35:42;24.40;;;23.20;;
3943;SDS011;1986;52.546;13.428;2024-02-23T14:38:14;24.00;;;22.80;;
3943;SDS011;1986;52.546;13.428;2024-02-23T14:40:44;24.10;;;23.00;;
3943;SDS011;1986;52.546;13.428;2024-02-23T14:43:12;23.87;;;22.77;;
3943;SDS011;1986;52.546;13.428;2024-02-23T14:45:41;23.93;;;22.80;;
3943;SDS011;1986;52.546;13.428;2024-02-23T14:54:18;24.30;;;23.10;;
3943;SDS011;1986;52.546;13.428;2024-02-23T14:56:52;24.10;;;23.00;;
3943;SDS011;1986;52.546;13.428;2024-02-23T14:59:19;23.33;;;22.23;;
3943;SDS011;1986;52.546;13.428;2024-02-23T15:01:48;23.80;;;22.70;;
3943;SDS011;1986;52.546;13.428;2024-02-23T15:04:26;23.83;;;22.73;;
3943;SDS011;1986;52.546;13.428;2024-02-23T15:06:57;24.03;;;22.83;;
3943;SDS011;1986;52.546;13.428;2024-02-23T15:09:24;23.20;;;22.10;;